Time;durP1;ratioP1;P1;durP2;ratioP2;P2;SDS_P1;SDS_P2;PMS_P1;PMS_P2;Temp;Humidity;BMP_temperature;BMP_pressure;BME280_temperature;BME280_humidity;BME280_pressure;Samples;Min_cycle;Max_cycle;Signal;HPM_P1;HPM_P2
2024/04/10 00:00:06;;;;;;;;;46.75;21.75;;;;;;;;10398628;28;42999;-62
2024/04/10 00:05:13;;;;;;;;;37.00;19.25;;;;;;;;10409044;28;43584;-61
2024/04/10 00:10:16;;;;;;;;;42.25;22.75;;;;;;;;10451612;28;49434;-61
2024/04/10 00:15:19;;;;;;;;;50.25;29.00;;;;;;;;10413552;28;49714;-65
2024/04/10 00:20:24;;;;;;;;;44.50;24.00;;;;;;;;10434173;28;44469;-63
2024/04/10 00:25:28;;;;;;;;;45.50;23.75;;;;;;;;10431655;28;45161;-60
2024/04/10 00:30:31;;;;;;;;;41.75;24.25;;;;;;;;10456926;28;43022;-63
2024/04/10 00:35:35;;;;;;;;;42.25;20.25;;;;;;;;10445719;28;42965;-62
2024/04/10 00:40:38;;;;;;;;;44.00;22.25;;;;;;;;10469965;28;43005;-60
2024/04/10 00:45:42;;;;;;;;;43.75;24.50;;;;;;;;10471218;28;43780;-60
2024/04/10 00:50:47;;;;;;;;;39.00;19.00;;;;;;;;10445653;28;42957;-59
2024/04/10 00:55:50;;;;;;;;;45.00;21.00;;;;;;;;10451030;28;43820;-60
2024/04/10 01:00:54;;;;;;;;;39.25;20.25;;;;;;;;10445334;28;44206;-61
2024/04/10 01:05:58;;;;;;;;;43.50;26.25;;;;;;;;10452363;28;43958;-62
2024/04/10 01:11:03;;;;;;;;;47.50;23.50;;;;;;;;10455396;28;44080;-62
2024/04/10 01:16:07;;;;;;;;;46.50;23.25;;;;;;;;10452040;28;50645;-64
2024/04/10 01:21:13;;;;;;;;;43.00;22.00;;;;;;;;10455079;28;43186;-62
2024/04/10 01:26:16;;;;;;;;;47.75;22.75;;;;;;;;10454353;28;42982;-63
2024/04/10 01:31:20;;;;;;;;;38.25;20.00;;;;;;;;10448886;28;44460;-60
2024/04/10 01:36:23;;;;;;;;;44.75;21.25;;;;;;;;10451583;28;43765;-60
2024/04/10 01:41:27;;;;;;;;;35.50;19.25;;;;;;;;10450770;28;43047;-61
2024/04/10 01:46:30;;;;;;;;;38.50;21.50;;;;;;;;10418286;28;43042;-61
2024/04/10 01:51:34;;;;;;;;;46.00;24.50;;;;;;;;10450285;28;44564;-62
2024/04/10 01:56:38;;;;;;;;;36.50;21.25;;;;;;;;10458780;28;43906;-61
2024/04/10 02:01:41;;;;;;;;;43.25;24.00;;;;;;;;10463997;28;43229;-62
2024/04/10 02:06:45;;;;;;;;;48.25;26.00;;;;;;;;10464801;28;42995;-62
2024/04/10 02:11:49;;;;;;;;;51.50;21.25;;;;;;;;10454931;28;43780;-60
2024/04/10 02:16:52;;;;;;;;;43.50;24.50;;;;;;;;10456910;28;43860;-59
2024/04/10 02:21:57;;;;;;;;;41.75;24.50;;;;;;;;10457972;28;43004;-61
2024/04/10 02:27:00;;;;;;;;;43.75;23.50;;;;;;;;10459223;28;43012;-61
2024/04/10 02:32:04;;;;;;;;;44.25;26.50;;;;;;;;10458959;28;43241;-60
2024/04/10 02:37:08;;;;;;;;;41.00;24.75;;;;;;;;10463800;28;43037;-60
2024/04/10 02:42:12;;;;;;;;;43.00;21.50;;;;;;;;10453501;28;43502;-60
2024/04/10 02:47:16;;;;;;;;;43.00;26.75;;;;;;;;10454880;28;43592;-61
2024/04/10 02:52:19;;;;;;;;;44.50;25.75;;;;;;;;10463580;28;43008;-59
2024/04/10 02:57:23;;;;;;;;;39.25;23.75;;;;;;;;10457819;28;43954;-60
2024/04/10 03:02:26;;;;;;;;;44.75;24.75;;;;;;;;10454866;27;44323;-61
2024/04/10 03:07:30;;;;;;;;;44.75;21.75;;;;;;;;10456555;28;42999;-59
2024/04/10 03:12:34;;;;;;;;;46.50;23.25;;;;;;;;10456860;28;43660;-60
2024/04/10 03:17:37;;;;;;;;;40.75;20.75;;;;;;;;10455062;28;43109;-60
2024/04/10 03:22:41;;;;;;;;;42.50;26.00;;;;;;;;10434748;28;43045;-60
2024/04/10 03:27:45;;;;;;;;;42.50;22.75;;;;;;;;10412448;28;43217;-59
2024/04/10 03:32:48;;;;;;;;;43.75;22.50;;;;;;;;10456052;28;43577;-60
2024/04/10 03:37:51;;;;;;;;;44.25;24.00;;;;;;;;10454434;28;43108;-59
2024/04/10 03:42:55;;;;;;;;;44.25;25.25;;;;;;;;10454470;28;43933;-59
2024/04/10 03:48:01;;;;;;;;;44.75;27.00;;;;;;;;10428933;28;43949;-60
2024/04/10 03:53:05;;;;;;;;;44.25;29.00;;;;;;;;10431504;28;44272;-60
2024/04/10 03:58:08;;;;;;;;;46.00;28.75;;;;;;;;10407546;28;43690;-60
2024/04/10 04:03:11;;;;;;;;;42.75;24.00;;;;;;;;10408325;28;42974;-60
2024/04/10 04:08:15;;;;;;;;;51.25;29.50;;;;;;;;10425129;28;42905;-62
2024/04/10 04:13:19;;;;;;;;;47.50;27.00;;;;;;;;10398137;28;42980;-60
2024/04/10 04:18:22;;;;;;;;;46.50;26.50;;;;;;;;10432364;28;44001;-59
2024/04/10 04:23:26;;;;;;;;;48.00;29.25;;;;;;;;10422955;28;42995;-60
2024/04/10 04:28:30;;;;;;;;;46.25;26.25;;;;;;;;10419503;28;43883;-59
2024/04/10 04:33:34;;;;;;;;;49.50;29.75;;;;;;;;10420160;28;43476;-59
2024/04/10 04:38:37;;;;;;;;;47.25;27.25;;;;;;;;10391568;28;43759;-60
2024/04/10 04:43:41;;;;;;;;;46.00;25.25;;;;;;;;10411212;28;43054;-62
2024/04/10 04:48:44;;;;;;;;;46.50;25.75;;;;;;;;10430898;28;43873;-61
2024/04/10 04:53:48;;;;;;;;;39.25;24.50;;;;;;;;10425924;28;43019;-59
2024/04/10 04:58:51;;;;;;;;;48.00;29.50;;;;;;;;10435416;28;43452;-60
2024/04/10 05:09:16;;;;;;;;;47.00;27.75;;;;;;;;10443101;28;43155;-61
2024/04/10 05:14:20;;;;;;;;;47.25;29.00;;;;;;;;10447679;28;43994;-63
2024/04/10 05:19:25;;;;;;;;;45.75;29.00;;;;;;;;10437541;28;43946;-62
2024/04/10 05:24:29;;;;;;;;;47.75;26.00;;;;;;;;10433193;28;42988;-61
2024/04/10 05:29:33;;;;;;;;;50.50;28.75;;;;;;;;10435236;28;42997;-62
2024/04/10 05:34:36;;;;;;;;;49.00;29.75;;;;;;;;10435455;28;43790;-60
2024/04/10 05:39:40;;;;;;;;;49.50;31.75;;;;;;;;10432876;28;42955;-61
2024/04/10 05:44:44;;;;;;;;;51.00;30.00;;;;;;;;10442975;28;43793;-61
2024/04/10 05:49:47;;;;;;;;;43.75;27.00;;;;;;;;10430404;28;43033;-61
2024/04/10 05:54:52;;;;;;;;;48.50;29.75;;;;;;;;10430306;28;43046;-62
2024/04/10 05:59:57;;;;;;;;;43.75;27.00;;;;;;;;10414831;28;43858;-61
2024/04/10 06:05:01;;;;;;;;;45.75;30.25;;;;;;;;10393603;28;43712;-61
2024/04/10 06:10:04;;;;;;;;;45.25;29.75;;;;;;;;10396056;28;43348;-61
2024/04/10 06:15:08;;;;;;;;;46.50;30.00;;;;;;;;10390016;28;43777;-61
2024/04/10 06:20:11;;;;;;;;;47.00;26.25;;;;;;;;10425377;28;44123;-60
2024/04/10 06:25:14;;;;;;;;;47.00;27.00;;;;;;;;10436164;28;43766;-62
2024/04/10 06:30:18;;;;;;;;;44.50;29.50;;;;;;;;10397104;28;43690;-62
2024/04/10 06:35:21;;;;;;;;;46.50;29.50;;;;;;;;10399151;28;43112;-63
2024/04/10 06:40:25;;;;;;;;;46.00;30.75;;;;;;;;10389395;28;44509;-60
2024/04/10 06:45:29;;;;;;;;;50.50;30.50;;;;;;;;10429785;28;43148;-60
2024/04/10 06:50:34;;;;;;;;;42.25;27.25;;;;;;;;10455982;28;42950;-60
2024/04/10 06:55:38;;;;;;;;;46.75;29.75;;;;;;;;10453963;28;43450;-64
2024/04/10 07:00:42;;;;;;;;;49.25;31.75;;;;;;;;10455458;28;43047;-61
2024/04/10 07:05:48;;;;;;;;;47.25;30.00;;;;;;;;10472435;27;43764;-61
2024/04/10 07:10:53;;;;;;;;;48.75;26.25;;;;;;;;10442018;28;44024;-61
2024/04/10 07:16:00;;;;;;;;;49.25;28.75;;;;;;;;10442997;28;43631;-60
2024/04/10 07:21:08;;;;;;;;;49.00;31.25;;;;;;;;10449447;27;43580;-63
2024/04/10 07:26:16;;;;;;;;;51.00;31.75;;;;;;;;10454677;27;43675;-61
2024/04/10 07:31:28;;;;;;;;;51.50;32.50;;;;;;;;10453648;28;44868;-61
2024/04/10 07:36:34;;;;;;;;;50.25;32.25;;;;;;;;10455763;28;42946;-62
2024/04/10 07:41:37;;;;;;;;;48.75;33.00;;;;;;;;10455882;28;43032;-61
2024/04/10 07:46:39;;;;;;;;;49.50;31.00;;;;;;;;10455057;28;43837;-62
2024/04/10 07:51:42;;;;;;;;;50.75;31.75;;;;;;;;10454953;28;42960;-61
2024/04/10 07:56:44;;;;;;;;;50.25;32.00;;;;;;;;10438688;28;44702;-62
2024/04/10 08:01:48;;;;;;;;;54.00;32.00;;;;;;;;10455424;28;43823;-59
2024/04/10 08:06:59;;;;;;;;;48.00;30.50;;;;;;;;10532737;27;44170;-60
2024/04/10 08:12:02;;;;;;;;;51.75;32.75;;;;;;;;10476802;27;43082;-59
2024/04/10 08:17:05;;;;;;;;;47.25;31.25;;;;;;;;10497025;27;43038;-60
2024/04/10 08:22:07;;;;;;;;;51.25;30.25;;;;;;;;10487769;27;43145;-60
2024/04/10 08:27:10;;;;;;;;;53.00;33.25;;;;;;;;10459531;27;43300;-59
2024/04/10 08:32:14;;;;;;;;;51.50;32.50;;;;;;;;10485654;27;43868;-60
2024/04/10 08:37:18;;;;;;;;;51.25;31.00;;;;;;;;10496810;27;42936;-59
2024/04/10 08:42:23;;;;;;;;;53.25;32.25;;;;;;;;10472765;27;43959;-59
2024/04/10 08:47:28;;;;;;;;;48.75;31.00;;;;;;;;10470665;27;44154;-61
2024/04/10 08:52:33;;;;;;;;;48.50;30.00;;;;;;;;10462617;27;43662;-61
2024/04/10 08:57:37;;;;;;;;;45.75;31.25;;;;;;;;10491019;27;43970;-61
2024/04/10 09:02:40;;;;;;;;;47.25;29.75;;;;;;;;10494841;27;42887;-61
2024/04/10 09:07:44;;;;;;;;;51.50;32.50;;;;;;;;10482561;27;42991;-61
2024/04/10 09:12:47;;;;;;;;;53.50;33.75;;;;;;;;10451432;27;43368;-61
2024/04/10 09:17:54;;;;;;;;;46.75;31.50;;;;;;;;10453382;28;44514;-61
2024/04/10 09:23:01;;;;;;;;;47.00;30.25;;;;;;;;10448939;27;42986;-61
2024/04/10 09:28:06;;;;;;;;;49.25;31.75;;;;;;;;10421745;27;43057;-61
2024/04/10 09:33:10;;;;;;;;;49.75;31.75;;;;;;;;10439027;27;43143;-61
2024/04/10 09:38:15;;;;;;;;;50.50;33.25;;;;;;;;10438175;28;42986;-61
2024/04/10 09:43:22;;;;;;;;;47.00;29.00;;;;;;;;10465918;27;42918;-61
2024/04/10 09:48:31;;;;;;;;;48.75;29.75;;;;;;;;10500068;27;43002;-64
2024/04/10 09:53:35;;;;;;;;;52.75;35.50;;;;;;;;10468925;28;43290;-61
2024/04/10 09:58:40;;;;;;;;;52.75;33.00;;;;;;;;10454294;28;43767;-61
2024/04/10 10:03:55;;;;;;;;;51.00;34.25;;;;;;;;10443725;28;44191;-61
2024/04/10 10:08:58;;;;;;;;;55.25;35.25;;;;;;;;10424018;28;43263;-61
2024/04/10 10:14:03;;;;;;;;;50.00;33.00;;;;;;;;10423415;28;42973;-59
2024/04/10 10:19:06;;;;;;;;;52.50;35.75;;;;;;;;10423835;28;42975;-60
2024/04/10 10:24:14;;;;;;;;;56.75;35.25;;;;;;;;10431192;28;43038;-59
2024/04/10 10:29:19;;;;;;;;;49.75;33.25;;;;;;;;10419209;28;43078;-60
2024/04/10 10:34:23;;;;;;;;;56.50;39.75;;;;;;;;10408544;28;42968;-60
2024/04/10 10:39:28;;;;;;;;;56.50;40.00;;;;;;;;10445137;28;43023;-62
2024/04/10 10:44:32;;;;;;;;;59.75;41.75;;;;;;;;10433558;28;43234;-61
2024/04/10 10:49:36;;;;;;;;;62.75;38.75;;;;;;;;10434445;28;42949;-59
2024/04/10 10:54:40;;;;;;;;;60.50;36.25;;;;;;;;10462572;28;42909;-61
2024/04/10 10:59:44;;;;;;;;;64.75;40.75;;;;;;;;10438953;28;42993;-61
2024/04/10 11:04:48;;;;;;;;;53.50;35.25;;;;;;;;10438363;28;43583;-60
2024/04/10 11:09:52;;;;;;;;;56.50;37.25;;;;;;;;10478710;28;44652;-60
2024/04/10 11:15:05;;;;;;;;;50.75;33.25;;;;;;;;10435465;28;44035;-61
2024/04/10 11:20:11;;;;;;;;;55.00;35.00;;;;;;;;10440695;28;48617;-64
2024/04/10 11:25:15;;;;;;;;;62.00;39.50;;;;;;;;10442301;28;48290;-60
2024/04/10 11:30:21;;;;;;;;;60.75;41.75;;;;;;;;10430721;28;43782;-62
2024/04/10 11:35:25;;;;;;;;;58.00;40.50;;;;;;;;10475411;28;50170;-61
2024/04/10 11:40:28;;;;;;;;;62.50;40.50;;;;;;;;10434318;28;49309;-61
2024/04/10 11:45:32;;;;;;;;;62.75;41.25;;;;;;;;10462654;28;43434;-64
2024/04/10 11:50:35;;;;;;;;;62.25;43.50;;;;;;;;10446375;28;48770;-63
2024/04/10 11:55:39;;;;;;;;;68.75;42.50;;;;;;;;10429842;28;50008;-69
2024/04/10 12:00:43;;;;;;;;;61.75;41.50;;;;;;;;10481279;27;51238;-64
2024/04/10 12:05:47;;;;;;;;;63.25;41.00;;;;;;;;10479505;28;44102;-61
2024/04/10 12:10:51;;;;;;;;;63.50;41.00;;;;;;;;10427959;28;42955;-62
2024/04/10 12:15:55;;;;;;;;;64.00;41.00;;;;;;;;10483588;27;43312;-61
2024/04/10 12:20:58;;;;;;;;;64.00;43.25;;;;;;;;10478475;28;49406;-61
2024/04/10 12:26:02;;;;;;;;;64.50;43.00;;;;;;;;10460065;28;43132;-62
2024/04/10 12:31:06;;;;;;;;;64.50;42.25;;;;;;;;10422460;28;43629;-63
2024/04/10 12:41:31;;;;;;;;;59.50;39.75;;;;;;;;10426030;28;43345;-63
2024/04/10 12:46:34;;;;;;;;;65.50;42.00;;;;;;;;10430515;28;43339;-62
2024/04/10 12:51:37;;;;;;;;;63.50;40.50;;;;;;;;10432862;28;44177;-62
2024/04/10 12:56:41;;;;;;;;;64.50;41.00;;;;;;;;10468653;28;42995;-61
2024/04/10 13:01:44;;;;;;;;;56.00;40.00;;;;;;;;10470509;27;44800;-62
2024/04/10 13:06:48;;;;;;;;;60.25;39.25;;;;;;;;10449629;27;43701;-62
2024/04/10 13:11:51;;;;;;;;;57.75;39.50;;;;;;;;10459413;28;43565;-63
2024/04/10 13:16:55;;;;;;;;;61.25;41.75;;;;;;;;10458102;28;44060;-61
2024/04/10 13:21:58;;;;;;;;;56.00;40.50;;;;;;;;10458630;28;42985;-62
2024/04/10 13:27:05;;;;;;;;;59.50;40.50;;;;;;;;10464107;28;43798;-63
2024/04/10 13:32:08;;;;;;;;;59.25;40.75;;;;;;;;10446468;28;43407;-63
2024/04/10 13:37:15;;;;;;;;;58.25;39.25;;;;;;;;10454690;28;42996;-63
2024/04/10 13:42:19;;;;;;;;;62.50;38.50;;;;;;;;10455168;28;42963;-64
2024/04/10 13:47:22;;;;;;;;;60.25;42.00;;;;;;;;10445540;28;43143;-61
2024/04/10 13:52:27;;;;;;;;;57.25;38.00;;;;;;;;10433291;28;43761;-61
2024/04/10 13:57:31;;;;;;;;;62.25;40.25;;;;;;;;10421870;28;43044;-62
2024/04/10 14:02:35;;;;;;;;;58.50;38.50;;;;;;;;10452147;28;44236;-62
2024/04/10 14:07:39;;;;;;;;;58.75;41.50;;;;;;;;10413634;28;43089;-61
2024/04/10 14:12:42;;;;;;;;;55.50;38.00;;;;;;;;10411947;28;43663;-62
2024/04/10 14:17:47;;;;;;;;;57.75;39.75;;;;;;;;10410772;28;43302;-62
2024/04/10 14:22:51;;;;;;;;;56.25;38.25;;;;;;;;10446326;28;43166;-62
2024/04/10 14:27:56;;;;;;;;;56.75;37.75;;;;;;;;10410772;28;43148;-62
2024/04/10 14:33:00;;;;;;;;;58.50;40.50;;;;;;;;10412278;28;42952;-61
2024/04/10 14:38:03;;;;;;;;;61.50;41.00;;;;;;;;10410476;28;43104;-62
2024/04/10 14:43:08;;;;;;;;;63.75;41.00;;;;;;;;10426113;28;42933;-61
2024/04/10 14:48:12;;;;;;;;;58.25;38.25;;;;;;;;10409907;28;43112;-62
2024/04/10 14:53:15;;;;;;;;;58.25;40.00;;;;;;;;10411436;28;43025;-61
2024/04/10 14:58:19;;;;;;;;;60.50;40.00;;;;;;;;10411491;28;43911;-62
2024/04/10 15:03:23;;;;;;;;;61.75;39.00;;;;;;;;10443851;28;43527;-62
2024/04/10 15:08:26;;;;;;;;;59.75;40.25;;;;;;;;10445106;28;43599;-61
2024/04/10 15:13:31;;;;;;;;;60.75;39.50;;;;;;;;10410397;28;43589;-62
2024/04/10 15:18:34;;;;;;;;;56.75;40.00;;;;;;;;10411788;28;43641;-62
2024/04/10 15:23:39;;;;;;;;;53.50;35.25;;;;;;;;10410566;28;43355;-61
2024/04/10 15:28:43;;;;;;;;;60.00;40.50;;;;;;;;10409369;28;43563;-62
2024/04/10 15:33:46;;;;;;;;;58.00;42.00;;;;;;;;10410091;28;49349;-62
2024/04/10 15:38:51;;;;;;;;;58.75;42.50;;;;;;;;10443328;28;43841;-62
2024/04/10 15:43:55;;;;;;;;;51.75;35.25;;;;;;;;10417507;28;43021;-61
2024/04/10 15:48:59;;;;;;;;;59.50;40.50;;;;;;;;10410828;28;43716;-61
2024/04/10 15:54:03;;;;;;;;;55.50;37.00;;;;;;;;10407970;28;43026;-61
2024/04/10 15:59:06;;;;;;;;;59.75;42.75;;;;;;;;10409473;28;43264;-62
2024/04/10 16:04:10;;;;;;;;;58.00;39.50;;;;;;;;10422009;28;43723;-60
2024/04/10 16:09:14;;;;;;;;;60.00;39.50;;;;;;;;10450057;28;43031;-60
2024/04/10 16:14:20;;;;;;;;;57.25;37.00;;;;;;;;10451628;28;44073;-61
2024/04/10 16:19:24;;;;;;;;;59.75;39.50;;;;;;;;10451390;28;43990;-61
2024/04/10 16:24:28;;;;;;;;;53.75;37.00;;;;;;;;10451954;28;43752;-61
2024/04/10 16:29:31;;;;;;;;;56.75;39.00;;;;;;;;10458445;28;43751;-61
2024/04/10 16:34:34;;;;;;;;;57.00;39.25;;;;;;;;10458156;28;43058;-61
2024/04/10 16:39:38;;;;;;;;;57.00;39.75;;;;;;;;10470967;28;42988;-61
2024/04/10 16:44:41;;;;;;;;;55.00;37.25;;;;;;;;10458242;28;43364;-61
2024/04/10 16:49:45;;;;;;;;;57.50;40.00;;;;;;;;10459301;28;43687;-61
2024/04/10 16:54:51;;;;;;;;;61.00;40.75;;;;;;;;10454104;28;43055;-61
2024/04/10 16:59:54;;;;;;;;;56.75;40.25;;;;;;;;10444428;28;43096;-61
2024/04/10 17:04:58;;;;;;;;;58.50;36.75;;;;;;;;10438829;28;43421;-61
2024/04/10 17:10:02;;;;;;;;;56.75;39.25;;;;;;;;10416139;28;43014;-61
2024/04/10 17:15:06;;;;;;;;;62.50;40.25;;;;;;;;10412525;28;42986;-61
2024/04/10 17:25:31;;;;;;;;;53.75;37.00;;;;;;;;10416211;28;49562;-61
2024/04/10 17:30:35;;;;;;;;;58.00;40.00;;;;;;;;10416253;28;43147;-62
2024/04/10 17:35:38;;;;;;;;;56.25;38.50;;;;;;;;10415624;28;43218;-62
2024/04/10 17:40:43;;;;;;;;;56.75;36.75;;;;;;;;10416509;28;44015;-62
2024/04/10 17:45:47;;;;;;;;;55.75;37.75;;;;;;;;10432461;28;43123;-62
2024/04/10 17:50:50;;;;;;;;;58.50;39.50;;;;;;;;10415412;28;43001;-62
2024/04/10 17:55:53;;;;;;;;;55.25;36.75;;;;;;;;10416761;28;44230;-62
2024/04/10 18:01:01;;;;;;;;;54.50;38.00;;;;;;;;10415528;28;43373;-62
2024/04/10 18:06:13;;;;;;;;;56.75;39.25;;;;;;;;10414826;28;43028;-62
2024/04/10 18:11:17;;;;;;;;;57.25;39.75;;;;;;;;10413734;28;43826;-62
2024/04/10 18:16:21;;;;;;;;;58.50;38.25;;;;;;;;10432360;28;42941;-62
2024/04/10 18:21:26;;;;;;;;;50.50;36.00;;;;;;;;10416153;28;42925;-62
2024/04/10 18:26:32;;;;;;;;;55.50;37.25;;;;;;;;10414978;28;43346;-62
2024/04/10 18:31:36;;;;;;;;;55.25;39.00;;;;;;;;10414138;28;44968;-61
2024/04/10 18:36:39;;;;;;;;;54.25;36.50;;;;;;;;10413625;28;42963;-62
2024/04/10 18:41:43;;;;;;;;;62.50;38.75;;;;;;;;10415375;28;44479;-62
2024/04/10 18:46:46;;;;;;;;;58.00;39.00;;;;;;;;10446629;28;43083;-62
2024/04/10 18:51:50;;;;;;;;;54.00;38.25;;;;;;;;10395861;28;44456;-62
2024/04/10 18:56:54;;;;;;;;;57.00;38.00;;;;;;;;10410244;28;43289;-62
2024/04/10 19:01:58;;;;;;;;;56.75;39.75;;;;;;;;10409886;28;43671;-62
2024/04/10 19:07:02;;;;;;;;;58.00;39.00;;;;;;;;10407731;28;43086;-62
2024/04/10 19:12:06;;;;;;;;;59.00;39.25;;;;;;;;10409576;28;43558;-62
2024/04/10 19:17:09;;;;;;;;;56.50;37.75;;;;;;;;10424557;28;44145;-62
2024/04/10 19:22:14;;;;;;;;;56.50;38.25;;;;;;;;10394015;28;44058;-61
2024/04/10 19:27:18;;;;;;;;;54.75;37.75;;;;;;;;10436890;28;42909;-62
2024/04/10 19:32:21;;;;;;;;;53.50;36.00;;;;;;;;10453768;28;42967;-62
2024/04/10 19:37:25;;;;;;;;;56.75;39.50;;;;;;;;10453519;28;43005;-62
2024/04/10 19:42:28;;;;;;;;;55.50;38.75;;;;;;;;10454193;28;43860;-61
2024/04/10 19:47:32;;;;;;;;;55.25;39.75;;;;;;;;10452236;28;44041;-62
2024/04/10 19:52:36;;;;;;;;;56.50;36.75;;;;;;;;10452490;28;43811;-61
2024/04/10 19:57:39;;;;;;;;;60.00;39.25;;;;;;;;10469315;28;43682;-61
2024/04/10 20:02:43;;;;;;;;;56.25;36.00;;;;;;;;10451209;28;43023;-61
2024/04/10 20:07:47;;;;;;;;;56.25;37.50;;;;;;;;10484075;27;43275;-62
2024/04/10 20:12:51;;;;;;;;;53.00;36.25;;;;;;;;10494087;27;43611;-62
2024/04/10 20:17:55;;;;;;;;;56.50;39.75;;;;;;;;10492919;27;43929;-62
2024/04/10 20:23:01;;;;;;;;;55.00;38.50;;;;;;;;10453366;28;43046;-62
2024/04/10 20:28:09;;;;;;;;;56.00;38.25;;;;;;;;10451798;28;43086;-62
2024/04/10 20:33:13;;;;;;;;;61.50;41.50;;;;;;;;10452074;28;43014;-62
2024/04/10 20:38:16;;;;;;;;;56.50;36.50;;;;;;;;10452372;28;43492;-61
2024/04/10 20:43:21;;;;;;;;;59.50;38.50;;;;;;;;10452143;28;44383;-62
2024/04/10 20:48:30;;;;;;;;;54.50;36.75;;;;;;;;10452437;28;42867;-62
2024/04/10 20:53:33;;;;;;;;;59.75;37.75;;;;;;;;10452543;28;43791;-62
2024/04/10 20:58:36;;;;;;;;;55.25;36.00;;;;;;;;10452644;28;42919;-61
2024/04/10 21:03:41;;;;;;;;;56.50;38.50;;;;;;;;10444565;28;42961;-62
2024/04/10 22:13:11;;;;;;;;;57.00;38.00;;;;;;;;10455860;28;43169;-63
2024/04/10 22:29:00;;;;;;;;;58.75;39.75;;;;;;;;10455388;28;43037;-63
2024/04/10 22:34:04;;;;;;;;;60.50;40.75;;;;;;;;10451293;28;44127;-62
2024/04/10 22:39:08;;;;;;;;;59.50;41.00;;;;;;;;10438614;28;43762;-62
2024/04/10 22:44:17;;;;;;;;;55.25;38.25;;;;;;;;10449355;28;42988;-60
2024/04/10 22:49:19;;;;;;;;;59.25;38.00;;;;;;;;10451272;28;43015;-61
2024/04/10 22:54:22;;;;;;;;;60.00;41.00;;;;;;;;10453861;28;42975;-62
2024/04/10 22:59:26;;;;;;;;;63.50;38.75;;;;;;;;10435294;28;42959;-61
2024/04/10 23:04:30;;;;;;;;;58.75;38.75;;;;;;;;10479794;28;43625;-62
2024/04/10 23:09:34;;;;;;;;;56.75;39.00;;;;;;;;10452316;28;43815;-60
2024/04/10 23:14:38;;;;;;;;;60.25;39.75;;;;;;;;10450135;28;42952;-61
2024/04/10 23:19:42;;;;;;;;;57.00;40.50;;;;;;;;10453241;28;42964;-60
2024/04/10 23:24:48;;;;;;;;;58.75;39.00;;;;;;;;10453227;28;43031;-61
2024/04/10 23:29:55;;;;;;;;;59.75;40.00;;;;;;;;10487439;27;43223;-59
2024/04/10 23:34:59;;;;;;;;;69.25;42.50;;;;;;;;10451214;28;42941;-61
2024/04/10 23:40:02;;;;;;;;;62.25;42.50;;;;;;;;10453823;28;43507;-67
2024/04/10 23:45:08;;;;;;;;;66.50;44.25;;;;;;;;10437096;28;43564;-60
2024/04/10 23:50:14;;;;;;;;;61.25;41.75;;;;;;;;10453397;28;50055;-60
2024/04/10 23:55:16;;;;;;;;;67.25;41.50;;;;;;;;10452993;28;48401;-61
